createdAt,value
2018-04-14T00:05:25.229Z,87.76
2018-04-14T00:25:58.351Z,87.86
2018-04-14T00:46:33.623Z,88.26
2018-04-14T01:07:07.672Z,86.85
2018-04-14T01:27:41.101Z,89.00
2018-04-14T01:48:16.564Z,87.77
2018-04-14T02:08:48.767Z,87.70
2018-04-14T02:29:24.758Z,88.95
2018-04-14T02:49:56.043Z,88.62
2018-04-14T03:10:30.419Z,88.77
2018-04-14T03:31:05.054Z,89.13
2018-04-14T03:51:38.479Z,88.58
2018-04-14T04:12:14.084Z,88.52
2018-04-14T04:50:53.769Z,90.11
2018-04-14T05:11:29.040Z,90.22
2018-04-14T05:32:06.551Z,90.00
2018-04-14T05:52:40.503Z,88.81
2018-04-14T06:13:13.627Z,88.75
2018-04-14T06:33:48.017Z,87.61
2018-04-14T06:54:24.171Z,87.06
2018-04-14T07:14:59.440Z,86.66
2018-04-14T07:35:35.630Z,85.67
2018-04-14T07:56:10.901Z,85.41
2018-04-14T08:16:43.103Z,84.07
2018-04-14T08:37:18.419Z,80.84
2018-04-14T08:57:51.491Z,72.96
2018-04-14T09:18:27.381Z,71.36
2018-04-14T09:39:04.430Z,65.58
2018-04-14T09:59:38.236Z,60.98
2018-04-14T10:20:17.502Z,57.82
2018-04-14T10:40:50.623Z,53.86
2018-04-14T11:01:24.977Z,52.20
2018-04-14T11:21:57.177Z,49.51
2018-04-14T11:42:33.368Z,49.31
2018-04-14T12:03:06.490Z,49.93
2018-04-14T12:23:39.918Z,47.73
2018-04-14T12:44:13.042Z,47.71
2018-04-14T13:04:47.388Z,47.18
2018-04-14T13:25:22.359Z,46.45
2018-04-14T13:45:54.558Z,45.46
2018-04-14T14:06:28.906Z,43.50
2018-04-14T14:27:04.439Z,44.60
2018-04-14T14:47:41.292Z,43.85
2018-04-14T15:08:15.925Z,42.94
2018-04-14T15:28:52.759Z,44.48
2018-04-14T15:49:26.454Z,45.40
2018-04-14T16:09:57.156Z,45.85
2018-04-14T16:30:34.283Z,47.20
2018-04-14T17:09:05.382Z,49.15
2018-04-14T17:29:37.581Z,52.94
2018-04-14T17:50:09.789Z,55.66
2018-04-14T18:10:41.987Z,57.83
2018-04-14T18:31:23.102Z,59.87
2018-04-14T18:51:58.669Z,63.63
2018-04-14T19:12:32.720Z,65.91
2018-04-14T19:33:10.213Z,68.10
2018-04-14T19:53:46.025Z,69.36
2018-04-14T20:14:19.451Z,71.52
2018-04-14T20:34:51.653Z,71.48
2018-04-14T20:55:24.772Z,72.14
2018-04-14T21:16:00.046Z,73.18
2018-04-14T21:36:35.315Z,73.55
2018-04-14T21:57:08.441Z,74.68
2018-04-14T22:17:43.709Z,74.96
2018-04-14T22:38:19.908Z,75.93
2018-04-14T22:58:53.425Z,76.14
2018-04-14T23:19:26.457Z,78.58
2018-04-14T23:39:58.835Z,81.50
